Saint Michael, Pennsylvania
Current Conditions -  °F | °C
As of 9:06 AM on Friday 24 Oct 2014 (Local Time) from KJST Reporting Station
Few Clouds Few Clouds  
Wind Chill: 37°   Ceiling: Unl
Heat Index: 42°   Visibility: 10mi
Dew Point: 38°   Wind: 8mph
Humidity: 85%   Direction: 270°W
Pressure: 30.05"   Gusts: NA
Location:  40.34°N, 78.77°W
Report Text: KJST 241306Z AUTO 27007KT 10SM FEW009 06/03 A3005 RMK AO2 T00560033
Loading
Personal Weather Stations






























Interactive Weather Map
Tropical Storm Tracking
New forecast layout! Learn more

10-Day Weather Forecast

Advertisements
Track Severe Weather on mobile